sensor_id;sensor_type;location;lat;lon;timestamp;pressure;altitude;pressure_sealevel;temperature;humidity
21276;BME280;36472;52.170;20.884;2023-04-09T00:01:07;101176.72;;;9.71;96.09
21276;BME280;36472;52.170;20.884;2023-04-09T00:03:37;101179.34;;;9.71;96.07
21276;BME280;36472;52.170;20.884;2023-04-09T00:06:07;101180.97;;;9.74;96.06
21276;BME280;36472;52.170;20.884;2023-04-09T00:08:36;101180.22;;;9.72;96.25
21276;BME280;36472;52.170;20.884;2023-04-09T00:11:06;101186.38;;;9.71;96.48
21276;BME280;36472;52.170;20.884;2023-04-09T00:13:35;101181.13;;;9.71;96.68
21276;BME280;36472;52.170;20.884;2023-04-09T00:16:07;101187.22;;;9.71;96.71
21276;BME280;36472;52.170;20.884;2023-04-09T00:18:36;101170.69;;;9.69;95.99
21276;BME280;36472;52.170;20.884;2023-04-09T00:21:05;101189.41;;;9.81;95.89
21276;BME280;36472;52.170;20.884;2023-04-09T00:23:35;101187.53;;;9.83;95.70
21276;BME280;36472;52.170;20.884;2023-04-09T00:26:05;101182.28;;;9.83;95.34
21276;BME280;36472;52.170;20.884;2023-04-09T00:28:34;101183.06;;;9.85;95.32
21276;BME280;36472;52.170;20.884;2023-04-09T00:31:06;101178.50;;;9.88;95.12
21276;BME280;36472;52.170;20.884;2023-04-09T00:33:34;101175.66;;;9.93;94.82
21276;BME280;36472;52.170;20.884;2023-04-09T00:36:04;101174.13;;;9.89;95.10
21276;BME280;36472;52.170;20.884;2023-04-09T00:38:33;101176.81;;;9.87;95.48
21276;BME280;36472;52.170;20.884;2023-04-09T00:41:02;101170.56;;;9.90;95.47
21276;BME280;36472;52.170;20.884;2023-04-09T00:43:32;101167.00;;;9.91;94.93
21276;BME280;36472;52.170;20.884;2023-04-09T00:46:03;101163.38;;;9.93;94.81
21276;BME280;36472;52.170;20.884;2023-04-09T00:48:32;101163.63;;;9.89;94.77
21276;BME280;36472;52.170;20.884;2023-04-09T00:51:01;101159.44;;;9.85;95.40
21276;BME280;36472;52.170;20.884;2023-04-09T00:53:30;101151.78;;;9.80;94.96
21276;BME280;36472;52.170;20.884;2023-04-09T00:56:00;101154.94;;;9.87;94.97
21276;BME280;36472;52.170;20.884;2023-04-09T00:58:29;101164.47;;;9.89;95.12
21276;BME280;36472;52.170;20.884;2023-04-09T01:01:00;101158.38;;;9.89;95.11
21276;BME280;36472;52.170;20.884;2023-04-09T01:03:29;101155.66;;;9.90;94.94
21276;BME280;36472;52.170;20.884;2023-04-09T01:06:06;101158.28;;;9.90;94.79
21276;BME280;36472;52.170;20.884;2023-04-09T01:08:48;101156.50;;;9.91;94.28
21276;BME280;36472;52.170;20.884;2023-04-09T01:11:29;101152.03;;;9.93;94.24
21276;BME280;36472;52.170;20.884;2023-04-09T01:14:09;101156.38;;;9.94;94.25
21276;BME280;36472;52.170;20.884;2023-04-09T01:16:51;101162.38;;;9.96;94.14
21276;BME280;36472;52.170;20.884;2023-04-09T01:19:41;101161.50;;;9.96;94.15
21276;BME280;36472;52.170;20.884;2023-04-09T01:22:28;101167.84;;;9.91;94.35
21276;BME280;36472;52.170;20.884;2023-04-09T01:25:14;101158.38;;;9.89;94.74
21276;BME280;36472;52.170;20.884;2023-04-09T01:28:13;101163.63;;;9.89;94.76
21276;BME280;36472;52.170;20.884;2023-04-09T01:30:47;101161.06;;;9.87;94.89
21276;BME280;36472;52.170;20.884;2023-04-09T01:33:19;101175.72;;;9.91;94.19
21276;BME280;36472;52.170;20.884;2023-04-09T01:35:51;101169.78;;;9.88;94.63
21276;BME280;36472;52.170;20.884;2023-04-09T01:38:22;101174.91;;;9.91;94.25
21276;BME280;36472;52.170;20.884;2023-04-09T01:40:54;101181.59;;;9.97;93.68
21276;BME280;36472;52.170;20.884;2023-04-09T01:43:26;101187.94;;;9.92;94.28
21276;BME280;36472;52.170;20.884;2023-04-09T01:45:55;101194.81;;;9.95;94.05
21276;BME280;36472;52.170;20.884;2023-04-09T01:48:27;101198.38;;;9.94;94.31
21276;BME280;36472;52.170;20.884;2023-04-09T01:50:57;101193.13;;;9.94;94.07
21276;BME280;36472;52.170;20.884;2023-04-09T01:53:26;101182.69;;;9.92;94.35
21276;BME280;36472;52.170;20.884;2023-04-09T01:55:55;101188.63;;;9.96;93.48
21276;BME280;36472;52.170;20.884;2023-04-09T01:58:26;101193.28;;;9.91;94.36
21276;BME280;36472;52.170;20.884;2023-04-09T02:01:00;101192.41;;;9.90;94.54
21276;BME280;36472;52.170;20.884;2023-04-09T02:03:37;101190.72;;;9.89;94.86
21276;BME280;36472;52.170;20.884;2023-04-09T02:06:13;101189.09;;;9.87;94.67
21276;BME280;36472;52.170;20.884;2023-04-09T02:08:46;101192.78;;;9.83;94.57
21276;BME280;36472;52.170;20.884;2023-04-09T02:11:15;101194.66;;;9.81;94.88
21276;BME280;36472;52.170;20.884;2023-04-09T02:13:52;101187.84;;;9.77;94.73
21276;BME280;36472;52.170;20.884;2023-04-09T02:16:22;101195.72;;;9.77;94.85
21276;BME280;36472;52.170;20.884;2023-04-09T02:18:54;101192.25;;;9.76;94.12
21276;BME280;36472;52.170;20.884;2023-04-09T02:21:23;101201.03;;;9.75;94.41
21276;BME280;36472;52.170;20.884;2023-04-09T02:23:54;101193.09;;;9.77;94.07
21276;BME280;36472;52.170;20.884;2023-04-09T02:26:24;101199.03;;;9.80;93.69
21276;BME280;36472;52.170;20.884;2023-04-09T02:28:54;101197.28;;;9.81;93.78
21276;BME280;36472;52.170;20.884;2023-04-09T02:31:23;101197.28;;;9.81;93.73
21276;BME280;36472;52.170;20.884;2023-04-09T02:33:52;101184.31;;;9.78;93.91
21276;BME280;36472;52.170;20.884;2023-04-09T02:36:21;101192.09;;;9.79;94.34
21276;BME280;36472;52.170;20.884;2023-04-09T02:38:50;101201.84;;;9.77;94.20
21276;BME280;36472;52.170;20.884;2023-04-09T02:41:19;101193.00;;;9.78;94.55
21276;BME280;36472;52.170;20.884;2023-04-09T02:43:48;101193.16;;;9.75;94.28
21276;BME280;36472;52.170;20.884;2023-04-09T02:46:18;101190.47;;;9.77;94.12
21276;BME280;36472;52.170;20.884;2023-04-09T02:48:47;101177.13;;;9.81;93.85
21276;BME280;36472;52.170;20.884;2023-04-09T02:51:17;101181.69;;;9.78;94.31
21276;BME280;36472;52.170;20.884;2023-04-09T02:53:46;101182.66;;;9.75;94.48
21276;BME280;36472;52.170;20.884;2023-04-09T02:56:14;101180.91;;;9.76;94.81
21276;BME280;36472;52.170;20.884;2023-04-09T02:58:43;101179.13;;;9.76;94.69
21276;BME280;36472;52.170;20.884;2023-04-09T03:01:12;101182.66;;;9.75;94.60
21276;BME280;36472;52.170;20.884;2023-04-09T03:03:43;101176.56;;;9.74;94.53
21276;BME280;36472;52.170;20.884;2023-04-09T03:06:12;101185.34;;;9.73;94.69
21276;BME280;36472;52.170;20.884;2023-04-09T03:08:41;101187.06;;;9.74;94.89
21276;BME280;36472;52.170;20.884;2023-04-09T03:11:10;101185.22;;;9.77;94.73
21276;BME280;36472;52.170;20.884;2023-04-09T03:13:39;101184.44;;;9.74;94.52
21276;BME280;36472;52.170;20.884;2023-04-09T03:16:08;101190.78;;;9.70;94.61
21276;BME280;36472;52.170;20.884;2023-04-09T03:18:37;101185.53;;;9.70;94.07
21276;BME280;36472;52.170;20.884;2023-04-09T03:21:08;101196.81;;;9.72;93.96
21276;BME280;36472;52.170;20.884;2023-04-09T03:23:46;101179.28;;;9.73;93.70
21276;BME280;36472;52.170;20.884;2023-04-09T03:26:15;101180.03;;;9.75;93.99
21276;BME280;36472;52.170;20.884;2023-04-09T03:28:47;101178.28;;;9.76;93.94
21276;BME280;36472;52.170;20.884;2023-04-09T03:31:17;101176.97;;;9.67;94.20
21276;BME280;36472;52.170;20.884;2023-04-09T03:33:47;101175.31;;;9.64;94.81
21276;BME280;36472;52.170;20.884;2023-04-09T03:36:17;101177.03;;;9.65;94.72
21276;BME280;36472;52.170;20.884;2023-04-09T03:38:59;101169.09;;;9.67;94.54
21276;BME280;36472;52.170;20.884;2023-04-09T03:41:37;101160.59;;;9.62;94.54
21276;BME280;36472;52.170;20.884;2023-04-09T03:44:10;101154.78;;;9.55;95.25
21276;BME280;36472;52.170;20.884;2023-04-09T03:46:53;101152.38;;;9.50;95.31
21276;BME280;36472;52.170;20.884;2023-04-09T03:49:23;101154.38;;;9.45;95.88
21276;BME280;36472;52.170;20.884;2023-04-09T03:51:57;101157.34;;;9.38;97.02
21276;BME280;36472;52.170;20.884;2023-04-09T03:54:34;101161.00;;;9.35;97.34
21276;BME280;36472;52.170;20.884;2023-04-09T03:57:07;101157.53;;;9.34;96.95
21276;BME280;36472;52.170;20.884;2023-04-09T03:59:39;101168.94;;;9.33;96.95
21276;BME280;36472;52.170;20.884;2023-04-09T04:02:08;101166.25;;;9.35;96.62
21276;BME280;36472;52.170;20.884;2023-04-09T04:04:43;101169.00;;;9.32;96.05
21276;BME280;36472;52.170;20.884;2023-04-09T04:07:13;101169.78;;;9.34;95.60
21276;BME280;36472;52.170;20.884;2023-04-09T04:09:48;101162.22;;;9.28;95.52
21276;BME280;36472;52.170;20.884;2023-04-09T04:12:18;101169.38;;;9.24;95.48
21276;BME280;36472;52.170;20.884;2023-04-09T04:15:08;101170.50;;;9.18;95.52
21276;BME280;36472;52.170;20.884;2023-04-09T04:17:52;101168.03;;;9.15;95.15
21276;BME280;36472;52.170;20.884;2023-04-09T04:20:37;101163.78;;;9.13;94.98
21276;BME280;36472;52.170;20.884;2023-04-09T04:23:11;101165.72;;;9.09;94.88
21276;BME280;36472;52.170;20.884;2023-04-09T04:25:49;101168.31;;;9.09;94.34
21276;BME280;36472;52.170;20.884;2023-04-09T04:28:26;101174.72;;;9.04;94.44
21276;BME280;36472;52.170;20.884;2023-04-09T04:30:55;101169.53;;;9.02;94.42
21276;BME280;36472;52.170;20.884;2023-04-09T04:33:24;101178.31;;;9.01;93.75
21276;BME280;36472;52.170;20.884;2023-04-09T04:36:04;101180.22;;;8.97;93.76
21276;BME280;36472;52.170;20.884;2023-04-09T04:38:42;101188.28;;;8.93;94.27
21276;BME280;36472;52.170;20.884;2023-04-09T04:41:17;101178.75;;;8.92;94.35
21276;BME280;36472;52.170;20.884;2023-04-09T04:43:53;101188.03;;;8.99;94.41
21276;BME280;36472;52.170;20.884;2023-04-09T04:46:24;101196.53;;;9.04;94.32
21276;BME280;36472;52.170;20.884;2023-04-09T04:48:53;101200.78;;;9.07;94.29
21276;BME280;36472;52.170;20.884;2023-04-09T04:51:22;101198.72;;;9.13;94.63
21276;BME280;36472;52.170;20.884;2023-04-09T04:54:02;101196.81;;;9.17;95.49
21276;BME280;36472;52.170;20.884;2023-04-09T04:56:31;101200.94;;;9.23;95.79
21276;BME280;36472;52.170;20.884;2023-04-09T04:59:11;101205.16;;;9.25;95.94
21276;BME280;36472;52.170;20.884;2023-04-09T05:02:01;101205.88;;;9.29;96.19
21276;BME280;36472;52.170;20.884;2023-04-09T05:04:37;101207.72;;;9.27;96.47
21276;BME280;36472;52.170;20.884;2023-04-09T05:07:10;101215.94;;;9.38;95.80
21276;BME280;36472;52.170;20.884;2023-04-09T05:09:48;101210.78;;;9.36;96.46
21276;BME280;36472;52.170;20.884;2023-04-09T05:12:17;101212.31;;;9.41;96.50
21276;BME280;36472;52.170;20.884;2023-04-09T05:14:50;101205.94;;;9.46;96.00
21276;BME280;36472;52.170;20.884;2023-04-09T05:17:19;101209.72;;;9.58;95.85
21276;BME280;36472;52.170;20.884;2023-04-09T05:19:51;101210.47;;;9.62;95.31
21276;BME280;36472;52.170;20.884;2023-04-09T05:22:26;101206.97;;;9.61;95.51
21276;BME280;36472;52.170;20.884;2023-04-09T05:24:56;101211.78;;;9.70;95.55
21276;BME280;36472;52.170;20.884;2023-04-09T05:27:27;101212.41;;;9.76;95.60
21276;BME280;36472;52.170;20.884;2023-04-09T05:30:00;101208.63;;;9.81;95.19
21276;BME280;36472;52.170;20.884;2023-04-09T05:32:30;101211.94;;;9.85;94.62
21276;BME280;36472;52.170;20.884;2023-04-09T05:34:59;101214.13;;;9.94;93.99
21276;BME280;36472;52.170;20.884;2023-04-09T05:37:30;101212.41;;;9.93;94.54
21276;BME280;36472;52.170;20.884;2023-04-09T05:40:01;101212.97;;;10.00;94.65
21276;BME280;36472;52.170;20.884;2023-04-09T05:42:30;101216.75;;;10.11;93.74
21276;BME280;36472;52.170;20.884;2023-04-09T05:45:08;101202.13;;;10.06;94.21
21276;BME280;36472;52.170;20.884;2023-04-09T05:47:45;101212.13;;;10.17;93.60
21276;BME280;36472;52.170;20.884;2023-04-09T05:50:19;101210.34;;;10.17;93.14
21276;BME280;36472;52.170;20.884;2023-04-09T05:52:51;101203.38;;;10.16;93.26
21276;BME280;36472;52.170;20.884;2023-04-09T05:55:22;101211.88;;;10.21;93.64
21276;BME280;36472;52.170;20.884;2023-04-09T05:57:59;101214.59;;;10.20;93.58
21276;BME280;36472;52.170;20.884;2023-04-09T06:00:28;101212.41;;;10.28;93.55
21276;BME280;36472;52.170;20.884;2023-04-09T06:02:57;101224.19;;;10.38;93.08
21276;BME280;36472;52.170;20.884;2023-04-09T06:05:27;101217.69;;;10.45;92.86
21276;BME280;36472;52.170;20.884;2023-04-09T06:07:56;101221.22;;;10.62;92.39
21276;BME280;36472;52.170;20.884;2023-04-09T06:10:26;101220.13;;;10.66;92.16
21276;BME280;36472;52.170;20.884;2023-04-09T06:12:56;101216.19;;;10.75;91.39
21276;BME280;36472;52.170;20.884;2023-04-09T06:15:25;101217.38;;;10.85;90.72
21276;BME280;36472;52.170;20.884;2023-04-09T06:17:54;101219.59;;;10.93;89.92
21276;BME280;36472;52.170;20.884;2023-04-09T06:20:25;101220.88;;;11.01;89.20
21276;BME280;36472;52.170;20.884;2023-04-09T06:22:54;101218.00;;;11.06;88.47
21276;BME280;36472;52.170;20.884;2023-04-09T06:25:23;101225.56;;;11.12;88.16
21276;BME280;36472;52.170;20.884;2023-04-09T06:27:54;101223.78;;;11.13;87.21
21276;BME280;36472;52.170;20.884;2023-04-09T06:30:23;101230.84;;;11.12;87.97
21276;BME280;36472;52.170;20.884;2023-04-09T06:32:52;101225.28;;;11.17;88.35
21276;BME280;36472;52.170;20.884;2023-04-09T06:35:22;101223.78;;;11.29;87.87
21276;BME280;36472;52.170;20.884;2023-04-09T06:37:51;101229.47;;;11.37;86.56
21276;BME280;36472;52.170;20.884;2023-04-09T06:40:20;101224.81;;;11.42;86.35
21276;BME280;36472;52.170;20.884;2023-04-09T06:42:50;101228.97;;;11.46;86.43
21276;BME280;36472;52.170;20.884;2023-04-09T06:45:29;101224.91;;;11.56;86.28
21276;BME280;36472;52.170;20.884;2023-04-09T06:47:59;101222.50;;;11.68;85.63
21276;BME280;36472;52.170;20.884;2023-04-09T06:50:28;101230.47;;;11.82;84.87
21276;BME280;36472;52.170;20.884;2023-04-09T06:52:57;101232.50;;;11.93;84.53
21276;BME280;36472;52.170;20.884;2023-04-09T06:55:26;101232.16;;;11.99;83.69
21276;BME280;36472;52.170;20.884;2023-04-09T06:57:55;101233.19;;;11.96;82.74
21276;BME280;36472;52.170;20.884;2023-04-09T07:00:24;101233.78;;;11.86;82.28
21276;BME280;36472;52.170;20.884;2023-04-09T07:02:55;101244.56;;;11.97;83.27
21276;BME280;36472;52.170;20.884;2023-04-09T07:05:24;101233.31;;;12.09;83.01
21276;BME280;36472;52.170;20.884;2023-04-09T07:07:53;101239.28;;;12.27;81.51
21276;BME280;36472;52.170;20.884;2023-04-09T07:10:22;101241.94;;;12.42;81.58
21276;BME280;36472;52.170;20.884;2023-04-09T07:12:51;101246.59;;;12.52;80.46
21276;BME280;36472;52.170;20.884;2023-04-09T07:15:20;101245.00;;;12.64;80.58
21276;BME280;36472;52.170;20.884;2023-04-09T07:17:49;101250.69;;;12.72;79.81
21276;BME280;36472;52.170;20.884;2023-04-09T07:20:19;101246.72;;;12.80;79.25
21276;BME280;36472;52.170;20.884;2023-04-09T07:22:48;101244.72;;;12.83;79.18
21276;BME280;36472;52.170;20.884;2023-04-09T07:25:17;101243.59;;;12.87;79.36
21276;BME280;36472;52.170;20.884;2023-04-09T07:27:46;101252.16;;;12.91;78.62
21276;BME280;36472;52.170;20.884;2023-04-09T07:30:16;101250.09;;;12.96;78.20
21276;BME280;36472;52.170;20.884;2023-04-09T07:32:45;101249.63;;;13.04;77.35
21276;BME280;36472;52.170;20.884;2023-04-09T07:35:14;101251.22;;;13.06;76.97
21276;BME280;36472;52.170;20.884;2023-04-09T07:37:44;101246.22;;;13.16;77.83
21276;BME280;36472;52.170;20.884;2023-04-09T07:40:13;101254.31;;;13.27;77.91
21276;BME280;36472;52.170;20.884;2023-04-09T07:42:42;101253.19;;;13.32;75.61
21276;BME280;36472;52.170;20.884;2023-04-09T07:45:11;101254.50;;;13.24;74.53
21276;BME280;36472;52.170;20.884;2023-04-09T07:47:40;101258.72;;;13.27;75.60
21276;BME280;36472;52.170;20.884;2023-04-09T07:50:10;101257.03;;;13.40;74.04
21276;BME280;36472;52.170;20.884;2023-04-09T07:52:39;101257.03;;;13.55;74.05
21276;BME280;36472;52.170;20.884;2023-04-09T07:55:10;101255.97;;;13.84;72.42
21276;BME280;36472;52.170;20.884;2023-04-09T07:57:39;101260.00;;;13.90;71.61
21276;BME280;36472;52.170;20.884;2023-04-09T08:00:10;101260.78;;;13.92;70.50
21276;BME280;36472;52.170;20.884;2023-04-09T08:02:39;101263.09;;;13.97;70.30
21276;BME280;36472;52.170;20.884;2023-04-09T08:05:09;101261.22;;;13.99;71.37
21276;BME280;36472;52.170;20.884;2023-04-09T08:07:38;101261.31;;;13.97;69.79
21276;BME280;36472;52.170;20.884;2023-04-09T08:10:10;101262.41;;;13.80;70.49
21276;BME280;36472;52.170;20.884;2023-04-09T08:12:42;101265.84;;;13.68;70.66
21276;BME280;36472;52.170;20.884;2023-04-09T08:15:11;101258.03;;;13.67;70.56
21276;BME280;36472;52.170;20.884;2023-04-09T08:17:40;101259.81;;;13.66;70.28
21276;BME280;36472;52.170;20.884;2023-04-09T08:20:10;101257.63;;;13.73;70.00
21276;BME280;36472;52.170;20.884;2023-04-09T08:22:39;101263.06;;;13.84;68.54
21276;BME280;36472;52.170;20.884;2023-04-09T08:25:10;101263.25;;;13.81;68.22
21276;BME280;36472;52.170;20.884;2023-04-09T08:27:39;101255.97;;;13.84;68.31
21276;BME280;36472;52.170;20.884;2023-04-09T08:30:09;101262.66;;;13.90;68.90
21276;BME280;36472;52.170;20.884;2023-04-09T08:32:39;101259.97;;;14.05;70.05
21276;BME280;36472;52.170;20.884;2023-04-09T08:35:09;101266.13;;;14.18;69.17
21276;BME280;36472;52.170;20.884;2023-04-09T08:37:38;101266.88;;;14.33;67.20
21276;BME280;36472;52.170;20.884;2023-04-09T08:40:09;101259.81;;;14.46;67.56
21276;BME280;36472;52.170;20.884;2023-04-09T08:42:43;101260.31;;;14.66;64.58
21276;BME280;36472;52.170;20.884;2023-04-09T08:45:13;101257.09;;;14.73;64.74
21276;BME280;36472;52.170;20.884;2023-04-09T08:47:44;101261.53;;;14.99;64.31
21276;BME280;36472;52.170;20.884;2023-04-09T08:50:14;101248.94;;;15.15;62.97
21276;BME280;36472;52.170;20.884;2023-04-09T08:52:45;101258.69;;;15.39;62.21
21276;BME280;36472;52.170;20.884;2023-04-09T08:55:16;101246.47;;;15.49;61.98
21276;BME280;36472;52.170;20.884;2023-04-09T08:57:45;101253.31;;;15.64;62.75
21276;BME280;36472;52.170;20.884;2023-04-09T09:00:14;101249.28;;;15.71;62.64
21276;BME280;36472;52.170;20.884;2023-04-09T09:03:02;101253.59;;;15.73;60.84
21276;BME280;36472;52.170;20.884;2023-04-09T09:05:37;101253.78;;;15.58;59.72
21276;BME280;36472;52.170;20.884;2023-04-09T09:08:07;101258.47;;;15.42;60.89
21276;BME280;36472;52.170;20.884;2023-04-09T09:10:40;101264.25;;;15.36;61.10
21276;BME280;36472;52.170;20.884;2023-04-09T09:13:20;101264.25;;;15.36;61.82
21276;BME280;36472;52.170;20.884;2023-04-09T09:15:51;101270.59;;;15.33;61.22
21276;BME280;36472;52.170;20.884;2023-04-09T09:18:37;101269.66;;;15.34;60.87
21276;BME280;36472;52.170;20.884;2023-04-09T09:21:10;101262.34;;;15.25;59.74
21276;BME280;36472;52.170;20.884;2023-04-09T09:23:40;101273.81;;;15.12;59.48
21276;BME280;36472;52.170;20.884;2023-04-09T09:26:15;101274.22;;;15.19;59.73
21276;BME280;36472;52.170;20.884;2023-04-09T09:28:46;101278.16;;;15.13;60.54
21276;BME280;36472;52.170;20.884;2023-04-09T09:31:18;101278.91;;;15.03;59.87
21276;BME280;36472;52.170;20.884;2023-04-09T09:33:48;101271.47;;;15.08;59.11
21276;BME280;36472;52.170;20.884;2023-04-09T09:36:31;101275.94;;;15.07;60.07
21276;BME280;36472;52.170;20.884;2023-04-09T09:39:01;101276.97;;;15.05;60.29
21276;BME280;36472;52.170;20.884;2023-04-09T09:41:38;101277.22;;;15.02;60.24
21276;BME280;36472;52.170;20.884;2023-04-09T09:44:10;101276.97;;;15.05;59.80
21276;BME280;36472;52.170;20.884;2023-04-09T09:46:40;101279.53;;;15.06;59.88
21276;BME280;36472;52.170;20.884;2023-04-09T09:49:10;101278.69;;;15.06;59.56
21276;BME280;36472;52.170;20.884;2023-04-09T09:51:40;101269.81;;;15.07;60.20
21276;BME280;36472;52.170;20.884;2023-04-09T09:54:10;101277.59;;;15.21;60.98
21276;BME280;36472;52.170;20.884;2023-04-09T09:56:43;101269.91;;;15.42;60.57
21276;BME280;36472;52.170;20.884;2023-04-09T09:59:19;101268.78;;;15.70;58.03
21276;BME280;36472;52.170;20.884;2023-04-09T10:01:59;101265.53;;;15.91;57.05
21276;BME280;36472;52.170;20.884;2023-04-09T10:04:33;101260.41;;;16.48;56.04
21276;BME280;36472;52.170;20.884;2023-04-09T10:07:05;101256.56;;;17.42;55.30
21276;BME280;36472;52.170;20.884;2023-04-09T10:09:37;101256.59;;;17.86;50.25
21276;BME280;36472;52.170;20.884;2023-04-09T10:12:10;101261.97;;;17.63;51.10
21276;BME280;36472;52.170;20.884;2023-04-09T10:14:40;101256.97;;;17.37;51.63
21276;BME280;36472;52.170;20.884;2023-04-09T10:17:10;101261.69;;;17.11;49.95
21276;BME280;36472;52.170;20.884;2023-04-09T10:19:44;101262.88;;;16.73;51.79
21276;BME280;36472;52.170;20.884;2023-04-09T10:22:20;101256.25;;;17.13;51.82
21276;BME280;36472;52.170;20.884;2023-04-09T10:24:52;101250.78;;;17.37;51.77
21276;BME280;36472;52.170;20.884;2023-04-09T10:27:25;101259.75;;;17.36;50.67
21276;BME280;36472;52.170;20.884;2023-04-09T10:29:55;101250.44;;;17.42;50.92
21276;BME280;36472;52.170;20.884;2023-04-09T10:32:24;101251.06;;;17.23;51.39
21276;BME280;36472;52.170;20.884;2023-04-09T10:34:57;101261.69;;;17.11;52.56
21276;BME280;36472;52.170;20.884;2023-04-09T10:37:27;101240.94;;;17.05;50.26
21276;BME280;36472;52.170;20.884;2023-04-09T10:39:56;101252.88;;;17.11;51.24
21276;BME280;36472;52.170;20.884;2023-04-09T10:42:34;101251.66;;;17.26;50.80
21276;BME280;36472;52.170;20.884;2023-04-09T10:45:08;101243.59;;;17.05;50.86
21276;BME280;36472;52.170;20.884;2023-04-09T10:47:39;101254.19;;;16.82;52.29
21276;BME280;36472;52.170;20.884;2023-04-09T10:50:15;101246.22;;;16.71;52.63
21276;BME280;36472;52.170;20.884;2023-04-09T10:52:44;101247.66;;;16.75;52.19
21276;BME280;36472;52.170;20.884;2023-04-09T10:55:32;101246.34;;;16.70;52.57
21276;BME280;36472;52.170;20.884;2023-04-09T10:58:03;101249.72;;;16.60;52.07
21276;BME280;36472;52.170;20.884;2023-04-09T11:00:38;101249.44;;;16.52;53.24
21276;BME280;36472;52.170;20.884;2023-04-09T11:03:23;101247.06;;;16.60;53.79
21276;BME280;36472;52.170;20.884;2023-04-09T11:06:02;101253.94;;;16.74;55.02
21276;BME280;36472;52.170;20.884;2023-04-09T11:08:33;101241.94;;;16.93;53.47
21276;BME280;36472;52.170;20.884;2023-04-09T11:11:02;101248.28;;;17.13;51.24
21276;BME280;36472;52.170;20.884;2023-04-09T11:13:32;101254.72;;;17.10;51.11
21276;BME280;36472;52.170;20.884;2023-04-09T11:16:02;101239.53;;;17.56;50.69
21276;BME280;36472;52.170;20.884;2023-04-09T11:18:34;101241.88;;;18.14;50.07
21276;BME280;36472;52.170;20.884;2023-04-09T11:21:04;101240.13;;;18.24;48.25
21276;BME280;36472;52.170;20.884;2023-04-09T11:23:34;101253.06;;;17.97;47.93
21276;BME280;36472;52.170;20.884;2023-04-09T11:26:03;101249.88;;;17.70;50.01
21276;BME280;36472;52.170;20.884;2023-04-09T11:28:34;101242.56;;;17.51;51.21
21276;BME280;36472;52.170;20.884;2023-04-09T11:31:04;101234.00;;;17.48;50.11
21276;BME280;36472;52.170;20.884;2023-04-09T11:33:33;101237.91;;;17.32;51.05
21276;BME280;36472;52.170;20.884;2023-04-09T11:36:04;101240.69;;;17.31;52.51
21276;BME280;36472;52.170;20.884;2023-04-09T11:38:36;101242.34;;;17.32;50.11
21276;BME280;36472;52.170;20.884;2023-04-09T11:41:05;101238.31;;;17.60;50.25
21276;BME280;36472;52.170;20.884;2023-04-09T11:43:40;101239.81;;;17.85;49.60
21276;BME280;36472;52.170;20.884;2023-04-09T11:46:09;101240.03;;;17.93;49.49
21276;BME280;36472;52.170;20.884;2023-04-09T11:48:38;101239.38;;;17.69;49.76
21276;BME280;36472;52.170;20.884;2023-04-09T11:51:08;101235.31;;;17.53;50.53
21276;BME280;36472;52.170;20.884;2023-04-09T11:53:37;101234.59;;;17.40;50.15
21276;BME280;36472;52.170;20.884;2023-04-09T11:56:07;101241.28;;;17.34;49.35
21276;BME280;36472;52.170;20.884;2023-04-09T11:58:36;101238.03;;;17.19;50.72
21276;BME280;36472;52.170;20.884;2023-04-09T12:01:06;101236.56;;;17.27;49.98
21276;BME280;36472;52.170;20.884;2023-04-09T12:03:35;101226.50;;;17.42;50.44
21276;BME280;36472;52.170;20.884;2023-04-09T12:06:06;101228.91;;;17.56;50.89
21276;BME280;36472;52.170;20.884;2023-04-09T12:08:36;101229.84;;;17.66;50.30
21276;BME280;36472;52.170;20.884;2023-04-09T12:11:09;101224.09;;;17.82;49.89
21276;BME280;36472;52.170;20.884;2023-04-09T12:13:39;101228.16;;;17.98;49.40
21276;BME280;36472;52.170;20.884;2023-04-09T12:16:12;101225.84;;;18.04;50.08
21276;BME280;36472;52.170;20.884;2023-04-09T12:18:41;101215.66;;;17.88;49.87
21276;BME280;36472;52.170;20.884;2023-04-09T12:21:10;101222.50;;;17.91;51.56
21276;BME280;36472;52.170;20.884;2023-04-09T12:23:39;101226.59;;;17.95;51.76
21276;BME280;36472;52.170;20.884;2023-04-09T12:26:08;101221.59;;;18.02;49.83
21276;BME280;36472;52.170;20.884;2023-04-09T12:28:37;101223.97;;;17.84;49.75
21276;BME280;36472;52.170;20.884;2023-04-09T12:31:08;101229.22;;;17.63;51.38
21276;BME280;36472;52.170;20.884;2023-04-09T12:33:39;101227.34;;;17.42;52.28
21276;BME280;36472;52.170;20.884;2023-04-09T12:36:09;101230.91;;;17.20;51.75
21276;BME280;36472;52.170;20.884;2023-04-09T12:38:38;101226.81;;;17.05;53.13
21276;BME280;36472;52.170;20.884;2023-04-09T12:41:07;101227.19;;;17.00;53.46
21276;BME280;36472;52.170;20.884;2023-04-09T12:43:36;101223.66;;;17.11;52.91
21276;BME280;36472;52.170;20.884;2023-04-09T12:46:06;101216.78;;;17.19;51.70
21276;BME280;36472;52.170;20.884;2023-04-09T12:48:35;101211.22;;;17.23;51.71
21276;BME280;36472;52.170;20.884;2023-04-09T12:51:05;101219.19;;;17.34;51.60
21276;BME280;36472;52.170;20.884;2023-04-09T12:53:35;101212.88;;;17.46;50.21
21276;BME280;36472;52.170;20.884;2023-04-09T12:56:06;101209.84;;;17.39;49.45
21276;BME280;36472;52.170;20.884;2023-04-09T12:58:35;101210.09;;;17.36;50.22
21276;BME280;36472;52.170;20.884;2023-04-09T13:01:05;101207.97;;;17.30;51.11
21276;BME280;36472;52.170;20.884;2023-04-09T13:03:34;101203.00;;;17.26;50.04
21276;BME280;36472;52.170;20.884;2023-04-09T13:06:06;101203.72;;;17.16;50.67
21276;BME280;36472;52.170;20.884;2023-04-09T13:08:34;101200.38;;;17.14;50.27